aviador You're here:

KGEV Decoded Metar

JEFFERSON in NC, USA
Report Time2017-07-22 10:10:00
UTC Time2017-07-22 10:34:04
Flight Rules vfr VFR
WindCalm
Visibility9999 m
Phenomena:N/A
Clouds:N/A
Expected CloudBase > 800 ft AGL from Temp-Dew spread
CeilingNone
Temp20°C (ISA +11)
Dew Point18°C (88% RH)
QNH1020 hPa
Density Alt4,547 ft
Elevation3,179 ft
Report Wrong Elevation
Raw Report
KGEV 221010Z AUTO 00000KT 10SM CLR 20/18 A3012 RMK AO2
T01960177=

Extra information for KGEV:More info

Metar Taf Metar & Taf Last 4 Metars F.Rules Stats Wind Profile Meteogram Temp Stats Airport Information Weather charts Add Link Nearby VenuesMetar ALERT Operation Metar Decoded Social comments

AIRNAV info for KGEV